createdAt,value
2019-05-18T00:01:43.763Z,99985.53
2019-05-18T00:04:13.256Z,99981.58
2019-05-18T00:06:42.718Z,99983.33
2019-05-18T00:09:12.524Z,99976.22
2019-05-18T00:11:42.380Z,99975.80
2019-05-18T00:14:11.887Z,99973.16
2019-05-18T00:16:41.384Z,99969.62
2019-05-18T00:19:10.832Z,99972.69
2019-05-18T00:21:40.710Z,99979.30
2019-05-18T00:24:10.279Z,99974.91
2019-05-18T00:26:39.735Z,99978.41
2019-05-18T00:29:10.852Z,99978.41
2019-05-18T00:31:40.446Z,99978.84
2019-05-18T00:34:10.006Z,99990.73
2019-05-18T00:36:39.470Z,99982.80
2019-05-18T00:39:10.129Z,99981.48
2019-05-18T00:41:39.633Z,99981.45
2019-05-18T00:44:09.463Z,99978.80
2019-05-18T00:46:38.960Z,99973.05
2019-05-18T00:49:08.451Z,99980.98
2019-05-18T00:51:37.977Z,99975.27
2019-05-18T00:54:07.608Z,99985.80
2019-05-18T00:56:37.091Z,99979.62
2019-05-18T00:59:06.602Z,99972.58
2019-05-18T01:01:36.050Z,99977.86
2019-05-18T01:04:06.609Z,99965.94
2019-05-18T01:06:36.062Z,99975.65
2019-05-18T01:09:06.594Z,99969.00
2019-05-18T01:11:36.156Z,99969.85
2019-05-18T01:14:05.800Z,99967.17
2019-05-18T01:16:35.309Z,99968.92
2019-05-18T01:19:04.872Z,99968.91
2019-05-18T01:21:34.467Z,99968.45
2019-05-18T01:24:04.423Z,99971.52
2019-05-18T01:26:34.250Z,99957.41
2019-05-18T01:29:05.190Z,99949.48
2019-05-18T01:31:35.082Z,99949.95
2019-05-18T01:34:04.712Z,99949.95
2019-05-18T01:36:34.169Z,99949.48
2019-05-18T01:39:05.967Z,99945.52
2019-05-18T01:41:35.842Z,99948.59
2019-05-18T01:44:05.797Z,99949.05
2019-05-18T01:46:35.260Z,99949.48
2019-05-18T01:49:04.865Z,99947.69
2019-05-18T01:51:34.411Z,99950.33
2019-05-18T01:54:03.957Z,99946.37
2019-05-18T01:56:33.455Z,99943.72
2019-05-18T01:59:03.013Z,99947.69
2019-05-18T02:01:32.454Z,99942.83
2019-05-18T02:04:01.955Z,99942.83
2019-05-18T02:06:31.870Z,99940.19
2019-05-18T02:09:01.354Z,99939.75
2019-05-18T02:11:32.223Z,99941.94
2019-05-18T02:14:01.719Z,99945.89
2019-05-18T02:16:34.288Z,99949.00
2019-05-18T02:19:03.735Z,99944.15
2019-05-18T02:21:33.225Z,99942.83
2019-05-18T02:24:02.690Z,99941.08
2019-05-18T02:26:32.182Z,99945.47
2019-05-18T02:29:01.677Z,99938.86
2019-05-18T02:31:31.144Z,99941.50
2019-05-18T02:34:00.642Z,99947.64
2019-05-18T02:36:30.100Z,99941.88
2019-05-18T02:38:59.553Z,99930.45
2019-05-18T02:41:29.047Z,99935.73
2019-05-18T02:43:58.500Z,99933.09
2019-05-18T02:46:28.472Z,99934.42
2019-05-18T02:48:59.563Z,99938.38
2019-05-18T02:51:29.048Z,99936.59
2019-05-18T02:53:58.672Z,99937.48
2019-05-18T02:56:28.167Z,99939.22
2019-05-18T02:58:57.647Z,99940.08
2019-05-18T03:01:27.366Z,99936.58
2019-05-18T03:03:57.926Z,99940.97
2019-05-18T03:06:28.412Z,99933.47
2019-05-18T03:08:58.346Z,99937.42
2019-05-18T03:11:28.230Z,99944.45
2019-05-18T03:13:57.736Z,99939.59
2019-05-18T03:16:27.232Z,99939.55
2019-05-18T03:19:07.541Z,99942.18
2019-05-18T03:21:28.267Z,99941.70
2019-05-18T03:23:58.414Z,99937.25
2019-05-18T03:26:28.258Z,99943.41
2019-05-18T03:28:57.787Z,99936.34
2019-05-18T03:31:27.280Z,99941.61
2019-05-18T03:33:56.776Z,99936.74
2019-05-18T03:36:26.337Z,99945.09
2019-05-18T03:38:55.784Z,99942.50
2019-05-18T03:41:25.266Z,99943.41
2019-05-18T03:43:54.720Z,99947.81
2019-05-18T03:46:24.303Z,99953.99
2019-05-18T03:48:54.803Z,99954.89
2019-05-18T03:51:24.305Z,99948.77
2019-05-18T03:53:53.756Z,99946.60
2019-05-18T03:56:23.708Z,99948.34
2019-05-18T03:58:53.192Z,99947.50
2019-05-18T04:01:22.716Z,99940.48
2019-05-18T04:03:52.511Z,99940.50
2019-05-18T04:06:21.983Z,99940.12
2019-05-18T04:08:51.438Z,99944.52
2019-05-18T04:11:20.922Z,99943.24
2019-05-18T04:13:50.372Z,99943.72
2019-05-18T04:16:19.880Z,99948.11
2019-05-18T04:18:49.453Z,99944.62
2019-05-18T04:21:19.008Z,99944.20
2019-05-18T04:23:48.511Z,99949.06
2019-05-18T04:26:18.012Z,99946.89
2019-05-18T04:28:48.551Z,99937.22
2019-05-18T04:31:18.040Z,99946.11
2019-05-18T04:33:47.497Z,99945.25
2019-05-18T04:36:16.998Z,99950.12
2019-05-18T04:38:46.508Z,99949.72
2019-05-18T04:41:17.468Z,99944.00
2019-05-18T04:43:46.933Z,99946.67
2019-05-18T04:46:16.784Z,99944.03
2019-05-18T04:48:46.313Z,99942.73
2019-05-18T04:51:17.335Z,99939.25
2019-05-18T04:53:46.791Z,99945.00
2019-05-18T04:56:16.295Z,99940.59
2019-05-18T04:58:46.057Z,99947.21
2019-05-18T05:01:15.564Z,99952.08
2019-05-18T05:03:45.376Z,99945.91
2019-05-18T05:06:14.939Z,99947.69
2019-05-18T05:08:44.793Z,99941.07
2019-05-18T05:11:14.284Z,99942.39
2019-05-18T05:13:43.731Z,99941.91
2019-05-18T05:16:13.599Z,99939.25
2019-05-18T05:18:43.047Z,99941.05
2019-05-18T05:21:12.537Z,99941.45
2019-05-18T05:23:41.978Z,99939.68
2019-05-18T05:26:11.471Z,99937.02
2019-05-18T05:28:40.943Z,99938.31
2019-05-18T05:31:10.424Z,99940.48
2019-05-18T05:33:39.889Z,99933.34
2019-05-18T05:36:09.676Z,99932.87
2019-05-18T05:38:39.146Z,99931.93
2019-05-18T05:41:08.662Z,99935.42
2019-05-18T05:43:38.111Z,99930.92
2019-05-18T05:46:07.614Z,99930.42
2019-05-18T05:48:37.406Z,99922.81
2019-05-18T05:51:06.866Z,99927.20
2019-05-18T05:53:36.354Z,99934.61
2019-05-18T05:56:05.805Z,99925.70
2019-05-18T05:58:35.310Z,99925.17
2019-05-18T06:01:04.849Z,99920.16
2019-05-18T06:03:34.378Z,99928.91
2019-05-18T06:06:03.918Z,99919.06
2019-05-18T06:08:33.765Z,99931.38
2019-05-18T06:11:03.261Z,99930.39
2019-05-18T06:13:33.858Z,99937.36
2019-05-18T06:16:03.310Z,99935.91
2019-05-18T06:18:32.818Z,99940.65
2019-05-18T06:21:02.332Z,99945.02
2019-05-18T06:23:31.837Z,99933.80
2019-05-18T06:26:01.396Z,99937.16
2019-05-18T06:28:30.894Z,99934.83
2019-05-18T06:31:01.194Z,99929.80
2019-05-18T06:33:30.981Z,99923.01
2019-05-18T06:36:00.467Z,99930.39
2019-05-18T06:38:29.971Z,99925.01
2019-05-18T06:40:59.451Z,99930.25
2019-05-18T06:43:29.020Z,99928.41
2019-05-18T06:45:58.837Z,99926.97
2019-05-18T06:48:28.362Z,99933.42
2019-05-18T06:51:06.716Z,99931.94
2019-05-18T06:53:29.089Z,99931.79
2019-05-18T06:55:58.998Z,99933.82
2019-05-18T06:58:29.745Z,99930.14
2019-05-18T07:00:59.650Z,99929.08
2019-05-18T07:03:29.218Z,99924.06
2019-05-18T07:05:58.641Z,99923.48
2019-05-18T07:08:28.137Z,99928.63
2019-05-18T07:10:57.611Z,99930.23
2019-05-18T07:13:27.157Z,99929.20
2019-05-18T07:15:56.653Z,99927.69
2019-05-18T07:18:26.240Z,99929.31
2019-05-18T07:20:55.693Z,99923.86
2019-05-18T07:23:25.160Z,99927.22
2019-05-18T07:25:54.660Z,99925.69
2019-05-18T07:28:24.151Z,99925.94
2019-05-18T07:30:53.643Z,99930.63
2019-05-18T07:33:23.386Z,99925.98
2019-05-18T07:35:53.263Z,99929.28
2019-05-18T07:38:22.783Z,99926.80
2019-05-18T07:40:52.300Z,99927.08
2019-05-18T07:43:21.770Z,99929.48
2019-05-18T07:45:51.275Z,99934.52
2019-05-18T07:48:20.748Z,99935.18
2019-05-18T07:50:50.818Z,99936.41
2019-05-18T07:53:20.274Z,99928.16
2019-05-18T07:55:49.819Z,99932.33
2019-05-18T07:58:19.300Z,99929.37
2019-05-18T08:00:48.796Z,99923.77
2019-05-18T08:03:18.643Z,99926.64
2019-05-18T08:05:48.298Z,99922.86
2019-05-18T08:08:17.748Z,99930.20
2019-05-18T08:10:47.250Z,99922.75
2019-05-18T08:13:17.093Z,99917.97
2019-05-18T08:15:46.592Z,99919.91
2019-05-18T08:18:17.631Z,99925.11
2019-05-18T08:20:47.152Z,99928.12
2019-05-18T08:23:16.610Z,99932.16
2019-05-18T08:25:46.133Z,99919.31
2019-05-18T08:28:15.580Z,99920.64
2019-05-18T08:30:45.203Z,99912.06
2019-05-18T08:33:14.749Z,99929.80
2019-05-18T08:35:44.224Z,99916.25
2019-05-18T08:38:13.785Z,99913.77
2019-05-18T08:40:43.334Z,99917.48
2019-05-18T08:43:13.104Z,99921.91
2019-05-18T08:45:42.594Z,99916.22
2019-05-18T08:48:12.044Z,99921.39
2019-05-18T08:50:42.960Z,99921.39
2019-05-18T08:53:12.468Z,99922.48
2019-05-18T08:55:41.971Z,99927.33
2019-05-18T08:58:11.432Z,99920.70
2019-05-18T09:00:40.919Z,99925.04
2019-05-18T09:03:10.461Z,99926.24
2019-05-18T09:05:40.115Z,99923.76
2019-05-18T09:08:09.630Z,99926.45
2019-05-18T09:10:39.491Z,99927.59
2019-05-18T09:13:09.035Z,99924.50
2019-05-18T09:15:38.607Z,99928.36
2019-05-18T09:18:08.248Z,99922.70
2019-05-18T09:20:37.884Z,99921.61
2019-05-18T09:23:10.239Z,99917.20
2019-05-18T09:25:39.714Z,99915.88
2019-05-18T09:28:09.174Z,99917.16
2019-05-18T09:30:41.210Z,99919.32
2019-05-18T09:33:09.829Z,99918.82
2019-05-18T09:35:39.396Z,99925.93
2019-05-18T09:38:08.899Z,99912.89
2019-05-18T09:40:38.732Z,99915.39
2019-05-18T09:43:08.538Z,99910.97
2019-05-18T09:45:38.039Z,99908.36
2019-05-18T09:48:07.646Z,99900.74
2019-05-18T09:50:37.216Z,99904.39
2019-05-18T09:53:06.659Z,99905.83
2019-05-18T09:55:36.251Z,99902.80
2019-05-18T09:58:06.193Z,99905.53
2019-05-18T10:00:38.934Z,99898.47
2019-05-18T10:03:07.168Z,99904.02
2019-05-18T10:05:36.695Z,99898.30
2019-05-18T10:08:06.243Z,99896.41
2019-05-18T10:10:35.695Z,99897.40
2019-05-18T10:13:05.209Z,99895.14
2019-05-18T10:15:35.191Z,99898.01
2019-05-18T10:18:04.991Z,99895.72
2019-05-18T10:20:34.486Z,99890.45
2019-05-18T10:23:12.392Z,99888.05
2019-05-18T10:25:35.247Z,99896.02
2019-05-18T10:28:04.797Z,99889.56
2019-05-18T10:30:34.239Z,99883.73
2019-05-18T10:33:03.945Z,99890.22
2019-05-18T10:35:33.574Z,99889.07
2019-05-18T10:38:03.095Z,99886.86
2019-05-18T10:40:32.737Z,99886.03
2019-05-18T10:43:02.172Z,99888.55
2019-05-18T10:45:32.067Z,99879.13
2019-05-18T10:48:01.918Z,99881.16
2019-05-18T10:50:31.544Z,99884.47
2019-05-18T10:53:01.398Z,99884.55
2019-05-18T10:55:31.011Z,99886.19
2019-05-18T10:58:00.513Z,99884.80
2019-05-18T11:00:30.720Z,99882.52
2019-05-18T11:03:00.298Z,99874.67
2019-05-18T11:05:29.805Z,99877.72
2019-05-18T11:07:59.326Z,99872.14
2019-05-18T11:10:29.056Z,99883.11
2019-05-18T11:12:58.547Z,99874.48
2019-05-18T11:15:28.129Z,99870.66
2019-05-18T11:17:57.753Z,99865.39
2019-05-18T11:20:27.591Z,99874.80
2019-05-18T11:22:57.145Z,99868.68
2019-05-18T11:25:26.664Z,99865.07
2019-05-18T11:27:56.441Z,99873.09
2019-05-18T11:30:26.130Z,99872.63
2019-05-18T11:32:55.648Z,99880.72
2019-05-18T11:35:25.265Z,99867.25
2019-05-18T11:37:54.869Z,99867.62
2019-05-18T11:40:24.468Z,99860.96
2019-05-18T11:42:55.084Z,99874.52
2019-05-18T11:45:25.279Z,99881.49
2019-05-18T11:47:55.131Z,99878.31
2019-05-18T11:50:25.698Z,99885.08
2019-05-18T11:52:56.395Z,99877.83
2019-05-18T11:55:26.124Z,99877.50
2019-05-18T11:57:59.156Z,99866.55
2019-05-18T12:00:29.094Z,99863.70
2019-05-18T12:02:58.661Z,99872.52
2019-05-18T12:05:28.154Z,99874.02
2019-05-18T12:07:57.669Z,99868.16
2019-05-18T12:10:27.128Z,99867.20
2019-05-18T12:12:56.960Z,99874.20
2019-05-18T12:15:26.652Z,99867.46
2019-05-18T12:17:56.191Z,99874.20
2019-05-18T12:20:25.850Z,99860.47
2019-05-18T12:22:55.805Z,99859.66
2019-05-18T12:25:25.377Z,99860.55
2019-05-18T12:27:54.852Z,99861.16
2019-05-18T12:30:24.775Z,99859.58
2019-05-18T12:32:54.217Z,99852.71
2019-05-18T12:35:23.701Z,99855.54
2019-05-18T12:37:53.160Z,99847.22
2019-05-18T12:40:23.590Z,99845.27
2019-05-18T12:42:53.197Z,99854.42
2019-05-18T12:45:23.153Z,99858.89
2019-05-18T12:47:52.614Z,99854.42
2019-05-18T12:50:22.921Z,99849.53
2019-05-18T12:52:52.500Z,99847.77
2019-05-18T12:55:22.286Z,99850.05
2019-05-18T12:57:52.139Z,99842.17
2019-05-18T13:00:22.116Z,99835.91
2019-05-18T13:02:52.014Z,99842.48
2019-05-18T13:05:21.645Z,99841.69
2019-05-18T13:07:51.518Z,99841.11
2019-05-18T13:10:21.705Z,99832.87
2019-05-18T13:12:51.415Z,99841.10
2019-05-18T13:15:21.135Z,99834.94
2019-05-18T13:17:50.726Z,99837.28
2019-05-18T13:20:21.684Z,99833.95
2019-05-18T13:22:51.224Z,99826.59
2019-05-18T13:25:26.469Z,99830.02
2019-05-18T13:27:54.082Z,99828.82
2019-05-18T13:30:24.098Z,99830.81
2019-05-18T13:32:54.007Z,99828.23
2019-05-18T13:35:23.641Z,99822.09
2019-05-18T13:37:53.141Z,99827.40
2019-05-18T13:40:23.601Z,99821.62
2019-05-18T13:42:53.051Z,99830.79
2019-05-18T13:45:22.729Z,99827.05
2019-05-18T13:47:52.838Z,99829.72
2019-05-18T13:50:23.372Z,99830.39
2019-05-18T13:52:52.901Z,99823.09
2019-05-18T13:55:23.741Z,99825.58
2019-05-18T13:57:53.200Z,99829.30
2019-05-18T14:00:23.174Z,99820.40
2019-05-18T14:02:52.897Z,99817.41
2019-05-18T14:05:23.152Z,99812.77
2019-05-18T14:07:52.605Z,99814.91
2019-05-18T14:10:22.164Z,99817.61
2019-05-18T14:12:51.621Z,99810.39
2019-05-18T14:15:22.981Z,99807.81
2019-05-18T14:17:52.811Z,99810.59
2019-05-18T14:20:22.559Z,99820.00
2019-05-18T14:22:52.097Z,99820.29
2019-05-18T14:25:21.644Z,99811.34
2019-05-18T14:27:51.310Z,99811.27
2019-05-18T14:30:23.364Z,99810.78
2019-05-18T14:32:52.949Z,99808.97
2019-05-18T14:35:22.397Z,99813.34
2019-05-18T14:37:51.899Z,99808.80
2019-05-18T14:40:21.493Z,99812.88
2019-05-18T14:42:51.301Z,99804.77
2019-05-18T14:45:20.895Z,99803.47
2019-05-18T14:47:50.472Z,99801.27
2019-05-18T14:50:20.312Z,99801.77
2019-05-18T14:52:49.895Z,99799.81
2019-05-18T14:55:32.868Z,99798.55
2019-05-18T14:57:50.632Z,99800.50
2019-05-18T15:00:20.715Z,99803.30
2019-05-18T15:02:50.231Z,99798.84
2019-05-18T15:05:20.365Z,99803.00
2019-05-18T15:07:49.937Z,99795.58
2019-05-18T15:10:20.343Z,99792.34
2019-05-18T15:12:49.898Z,99788.57
2019-05-18T15:15:19.662Z,99798.27
2019-05-18T15:17:49.440Z,99790.03
2019-05-18T15:20:19.318Z,99789.22
2019-05-18T15:22:49.243Z,99792.00
2019-05-18T15:25:18.848Z,99787.77
2019-05-18T15:27:48.362Z,99787.14
2019-05-18T15:30:18.927Z,99784.80
2019-05-18T15:32:48.576Z,99787.25
2019-05-18T15:35:18.350Z,99786.25
2019-05-18T15:37:47.938Z,99792.02
2019-05-18T15:40:17.630Z,99783.81
2019-05-18T15:42:49.253Z,99786.69
2019-05-18T15:45:19.533Z,99779.27
2019-05-18T15:47:49.153Z,99785.09
2019-05-18T15:50:18.960Z,99786.90
2019-05-18T15:52:48.527Z,99784.28
2019-05-18T15:55:18.080Z,99785.55
2019-05-18T15:57:47.925Z,99779.95
2019-05-18T16:00:18.145Z,99778.63
2019-05-18T16:02:47.688Z,99783.77
2019-05-18T16:05:17.506Z,99777.75
2019-05-18T16:07:47.106Z,99776.33
2019-05-18T16:10:17.289Z,99783.79
2019-05-18T16:12:46.865Z,99782.75
2019-05-18T16:15:16.476Z,99781.20
2019-05-18T16:17:45.983Z,99781.84
2019-05-18T16:20:15.772Z,99781.30
2019-05-18T16:22:45.325Z,99779.46
2019-05-18T16:25:15.876Z,99780.37
2019-05-18T16:27:45.460Z,99779.45
2019-05-18T16:30:16.357Z,99779.94
2019-05-18T16:32:45.905Z,99773.75
2019-05-18T16:35:15.987Z,99774.26
2019-05-18T16:37:45.570Z,99768.31
2019-05-18T16:40:15.902Z,99764.96
2019-05-18T16:42:46.652Z,99765.44
2019-05-18T16:45:19.092Z,99768.90
2019-05-18T16:47:49.039Z,99778.23
2019-05-18T16:50:19.237Z,99769.30
2019-05-18T16:52:49.338Z,99769.81
2019-05-18T16:55:19.045Z,99766.39
2019-05-18T16:57:48.687Z,99765.58
2019-05-18T17:00:18.666Z,99764.48
2019-05-18T17:02:48.686Z,99766.32
2019-05-18T17:05:18.693Z,99759.79
2019-05-18T17:07:48.251Z,99758.97
2019-05-18T17:10:18.843Z,99760.03
2019-05-18T17:12:48.952Z,99757.55
2019-05-18T17:15:19.429Z,99761.66
2019-05-18T17:17:49.027Z,99759.89
2019-05-18T17:20:19.224Z,99766.89
2019-05-18T17:22:48.696Z,99762.91
2019-05-18T17:25:18.354Z,99772.02
2019-05-18T17:27:47.905Z,99768.55
2019-05-18T17:30:17.943Z,99770.95
2019-05-18T17:32:47.873Z,99764.50
2019-05-18T17:35:17.576Z,99770.28
2019-05-18T17:37:48.656Z,99778.36
2019-05-18T17:40:18.240Z,99773.86
2019-05-18T17:42:47.823Z,99770.27
2019-05-18T17:45:17.431Z,99770.80
2019-05-18T17:47:46.982Z,99776.19
2019-05-18T17:50:16.569Z,99788.11
2019-05-18T17:52:46.265Z,99784.20
2019-05-18T17:55:16.738Z,99779.73
2019-05-18T17:57:46.207Z,99787.84
2019-05-18T18:00:16.621Z,99781.58
2019-05-18T18:02:48.177Z,99789.10
2019-05-18T18:05:17.934Z,99783.73
2019-05-18T18:07:47.491Z,99791.97
2019-05-18T18:10:17.981Z,99796.23
2019-05-18T18:12:47.605Z,99788.61
2019-05-18T18:15:17.186Z,99795.70
2019-05-18T18:17:46.778Z,99793.05
2019-05-18T18:20:16.785Z,99786.77
2019-05-18T18:22:46.341Z,99790.73
2019-05-18T18:25:15.991Z,99788.98
2019-05-18T18:27:45.508Z,99789.89
2019-05-18T18:30:15.829Z,99790.23
2019-05-18T18:32:45.287Z,99789.30
2019-05-18T18:35:14.928Z,99784.33
2019-05-18T18:37:44.493Z,99787.75
2019-05-18T18:40:14.877Z,99790.77
2019-05-18T18:42:44.698Z,99792.80
2019-05-18T18:45:14.728Z,99790.38
2019-05-18T18:47:44.271Z,99794.61
2019-05-18T18:50:14.196Z,99793.98
2019-05-18T18:52:43.704Z,99804.00
2019-05-18T18:55:13.436Z,99799.81
2019-05-18T18:57:43.269Z,99801.89
2019-05-18T19:00:13.297Z,99802.97
2019-05-18T19:02:42.746Z,99801.88
2019-05-18T19:05:14.390Z,99800.39
2019-05-18T19:07:43.992Z,99802.80
2019-05-18T19:10:14.070Z,99806.61
2019-05-18T19:12:43.686Z,99810.81
2019-05-18T19:15:13.511Z,99808.27
2019-05-18T19:17:43.025Z,99807.14
2019-05-18T19:20:13.453Z,99810.45
2019-05-18T19:22:42.919Z,99809.38
2019-05-18T19:25:13.335Z,99811.80
2019-05-18T19:27:53.985Z,99821.34
2019-05-18T19:30:14.523Z,99822.53
2019-05-18T19:32:44.039Z,99825.46
2019-05-18T19:35:13.894Z,99821.72
2019-05-18T19:37:43.490Z,99818.42
2019-05-18T19:40:14.814Z,99824.92
2019-05-18T19:42:44.630Z,99826.47
2019-05-18T19:45:14.724Z,99831.09
2019-05-18T19:47:44.230Z,99827.86
2019-05-18T19:50:14.681Z,99832.97
2019-05-18T19:52:44.197Z,99831.35
2019-05-18T19:55:14.190Z,99839.56
2019-05-18T19:57:43.712Z,99837.12
2019-05-18T20:00:13.507Z,99841.28
2019-05-18T20:02:43.105Z,99846.37
2019-05-18T20:05:12.691Z,99837.16
2019-05-18T20:07:42.668Z,99839.97
2019-05-18T20:10:13.311Z,99840.59
2019-05-18T20:12:43.146Z,99835.39
2019-05-18T20:15:13.358Z,99834.18
2019-05-18T20:17:42.867Z,99833.83
2019-05-18T20:20:13.272Z,99831.73
2019-05-18T20:22:42.987Z,99832.80
2019-05-18T20:25:13.734Z,99839.20
2019-05-18T20:27:43.550Z,99836.25
2019-05-18T20:30:14.381Z,99833.22
2019-05-18T20:32:44.193Z,99842.20
2019-05-18T20:35:14.525Z,99843.63
2019-05-18T20:37:44.113Z,99839.30
2019-05-18T20:40:14.456Z,99838.48
2019-05-18T20:42:44.709Z,99842.13
2019-05-18T20:45:14.160Z,99843.55
2019-05-18T20:47:43.742Z,99837.41
2019-05-18T20:50:15.280Z,99841.48
2019-05-18T20:52:44.934Z,99838.89
2019-05-18T20:55:14.617Z,99836.74
2019-05-18T20:57:45.124Z,99833.75
2019-05-18T21:00:15.209Z,99837.83
2019-05-18T21:02:45.714Z,99830.38
2019-05-18T21:05:15.405Z,99837.61
2019-05-18T21:07:44.932Z,99835.02
2019-05-18T21:10:15.109Z,99844.88
2019-05-18T21:12:44.675Z,99837.83
2019-05-18T21:15:14.900Z,99838.83
2019-05-18T21:17:44.385Z,99837.12
2019-05-18T21:20:14.345Z,99835.48
2019-05-18T21:22:43.814Z,99840.00
2019-05-18T21:25:13.633Z,99838.33
2019-05-18T21:27:43.119Z,99841.95
2019-05-18T21:30:13.196Z,99835.88
2019-05-18T21:32:43.918Z,99835.46
2019-05-18T21:35:13.536Z,99835.94
2019-05-18T21:37:42.947Z,99839.08
2019-05-18T21:40:13.201Z,99840.92
2019-05-18T21:42:43.791Z,99845.91
2019-05-18T21:45:13.643Z,99845.15
2019-05-18T21:47:43.122Z,99842.58
2019-05-18T21:50:14.149Z,99848.45
2019-05-18T21:52:44.001Z,99850.31
2019-05-18T21:55:13.635Z,99852.18
2019-05-18T21:57:43.096Z,99854.02
2019-05-18T22:00:13.331Z,99853.25
2019-05-18T22:02:44.485Z,99858.16
2019-05-18T22:05:14.208Z,99853.78
2019-05-18T22:07:43.962Z,99858.27
2019-05-18T22:10:25.415Z,99859.66
2019-05-18T22:12:45.105Z,99853.92
2019-05-18T22:15:15.557Z,99855.28
2019-05-18T22:18:02.993Z,99854.45
2019-05-18T22:20:33.799Z,99846.52
2019-05-18T22:23:04.279Z,99843.47
2019-05-18T22:25:34.319Z,99850.18
2019-05-18T22:28:03.854Z,99850.65
2019-05-18T22:30:33.573Z,99855.11
2019-05-18T22:33:03.427Z,99852.06
2019-05-18T22:35:32.950Z,99845.04
2019-05-18T22:38:02.490Z,99848.63
2019-05-18T22:40:32.008Z,99841.08
2019-05-18T22:43:02.488Z,99833.16
2019-05-18T22:45:32.426Z,99840.33
2019-05-18T22:48:02.223Z,99832.80
2019-05-18T22:50:32.103Z,99839.05
2019-05-18T22:53:01.629Z,99837.77
2019-05-18T22:55:31.165Z,99836.90
2019-05-18T22:58:00.668Z,99838.69
2019-05-18T23:00:30.463Z,99840.48
2019-05-18T23:02:59.958Z,99835.22
2019-05-18T23:05:29.457Z,99837.95
2019-05-18T23:07:58.968Z,99831.82
2019-05-18T23:10:28.450Z,99835.41
2019-05-18T23:12:58.030Z,99837.67
2019-05-18T23:15:27.492Z,99835.09
2019-05-18T23:17:57.270Z,99830.26
2019-05-18T23:20:26.786Z,99836.92
2019-05-18T23:22:56.343Z,99832.95
2019-05-18T23:25:25.881Z,99843.61
2019-05-18T23:27:55.722Z,99831.25
2019-05-18T23:30:25.252Z,99841.93
2019-05-18T23:32:54.750Z,99837.97
2019-05-18T23:35:24.238Z,99834.47
2019-05-18T23:37:54.155Z,99822.99
2019-05-18T23:40:23.723Z,99817.23
2019-05-18T23:42:53.227Z,99814.59
2019-05-18T23:45:22.691Z,99809.30
2019-05-18T23:47:52.357Z,99811.98
2019-05-18T23:50:21.885Z,99810.67
2019-05-18T23:52:51.412Z,99810.69
2019-05-18T23:55:20.997Z,99815.59
2019-05-18T23:57:50.983Z,99816.08
